FFD weather

RAF Fairford
Fairford, England, United Kingdom

Public forecast

Using degrees Celsius for public forecast. Weather courtesy of forecast.io.

Current aviation weather report (METAR) for RAF Fairford

Retrieved 2020/04/06 13:56 UTC (53 minutes ago):

EGVA 061356Z AUTO 27017G21KT 9999 CLR 15/03 A3009 RMK AO2 SLP192 T01520033

Closest aviation forecast (TAF) to RAF Fairford

Closest forecast is RAF Brize Norton, 8.7 nm (16.1 km) ENE. Retrieved 2020/04/06 15:00 UTC (0 seconds ago):

TAF EGVN 061350Z 0615/0715 24009KT CAVOK PROB40 0704/0707 4000 MIFG BR